Time;durP1;ratioP1;P1;durP2;ratioP2;P2;SDS_P1;SDS_P2;PMS_P1;PMS_P2;Temp;Humidity;BMP_temperature;BMP_pressure;BME280_temperature;BME280_humidity;BME280_pressure;Samples;Min_cycle;Max_cycle;Signal;HPM_P1;HPM_P2
2023/12/03 00:01:59;;;;;;;63.00;30.67;;;2.90;99.90;;;;;;5015746;28;20034;-76
2023/12/03 00:04:25;;;;;;;60.58;29.88;;;2.90;99.90;;;;;;5015089;28;20037;-77
2023/12/03 00:06:52;;;;;;;67.18;31.88;;;2.90;99.90;;;;;;5015143;28;20034;-78
2023/12/03 00:09:18;;;;;;;64.72;30.55;;;2.80;99.90;;;;;;5015362;28;20038;-77
2023/12/03 00:11:43;;;;;;;63.17;31.30;;;2.80;99.90;;;;;;5014302;28;20026;-76
2023/12/03 00:14:09;;;;;;;67.28;30.83;;;2.80;99.90;;;;;;5014620;28;20425;-77
2023/12/03 00:16:35;;;;;;;67.07;30.85;;;2.80;99.90;;;;;;5015243;28;20052;-76
2023/12/03 00:19:00;;;;;;;62.03;28.95;;;2.80;99.90;;;;;;5013800;28;20069;-77
2023/12/03 00:21:26;;;;;;;60.75;29.65;;;2.70;99.90;;;;;;5013657;28;20026;-77
2023/12/03 00:23:52;;;;;;;66.88;30.20;;;2.80;99.90;;;;;;5014330;28;20084;-77
2023/12/03 00:26:17;;;;;;;62.35;29.77;;;2.90;99.90;;;;;;5014798;28;20054;-76
2023/12/03 00:28:43;;;;;;;63.10;28.70;;;2.80;99.90;;;;;;5014719;28;20029;-76
2023/12/03 00:31:08;;;;;;;67.97;31.27;;;2.80;99.90;;;;;;5015236;28;20030;-76
2023/12/03 00:33:34;;;;;;;68.68;31.55;;;2.80;99.90;;;;;;5013206;28;20049;-76
2023/12/03 00:36:00;;;;;;;63.80;29.20;;;2.80;99.90;;;;;;5014591;28;20041;-76
2023/12/03 00:38:26;;;;;;;65.22;28.45;;;2.80;99.90;;;;;;5014767;28;20180;-76
2023/12/03 00:40:52;;;;;;;65.22;29.67;;;2.70;99.90;;;;;;5013453;28;20041;-75
2023/12/03 00:43:18;;;;;;;64.70;28.77;;;2.70;99.90;;;;;;5014753;28;20037;-75
2023/12/03 00:45:43;;;;;;;63.90;29.55;;;2.60;99.90;;;;;;5014988;28;20471;-75
2023/12/03 00:48:09;;;;;;;65.40;27.90;;;2.70;99.90;;;;;;5014401;28;20466;-75
2023/12/03 00:50:34;;;;;;;67.32;29.58;;;2.70;99.90;;;;;;5014630;28;20032;-74
2023/12/03 00:53:00;;;;;;;74.32;31.00;;;2.70;99.90;;;;;;5013983;28;20057;-75
2023/12/03 00:55:26;;;;;;;70.82;30.13;;;2.70;99.90;;;;;;5014893;28;20034;-75
2023/12/03 00:57:51;;;;;;;75.70;31.02;;;2.70;99.90;;;;;;5013202;28;20033;-75
2023/12/03 01:00:17;;;;;;;77.47;32.13;;;2.70;99.90;;;;;;5014703;28;20134;-75
2023/12/03 01:02:43;;;;;;;77.47;32.95;;;2.70;99.90;;;;;;5014155;28;20033;-75
2023/12/03 01:05:08;;;;;;;77.00;31.35;;;2.70;99.90;;;;;;5013170;28;20053;-75
2023/12/03 01:07:34;;;;;;;79.30;32.50;;;2.70;99.90;;;;;;5014041;28;20045;-75
2023/12/03 01:10:00;;;;;;;86.05;34.15;;;2.70;99.90;;;;;;4996739;28;20390;-75
2023/12/03 01:12:26;;;;;;;90.78;35.75;;;2.70;99.90;;;;;;5012920;28;20393;-75
2023/12/03 01:14:52;;;;;;;90.47;34.45;;;2.60;99.90;;;;;;5013962;28;20108;-74
2023/12/03 01:17:17;;;;;;;97.70;36.22;;;2.60;99.90;;;;;;5014411;28;20033;-75
2023/12/03 01:19:43;;;;;;;91.05;35.92;;;2.60;99.90;;;;;;5012579;28;20026;-75
2023/12/03 01:22:08;;;;;;;93.32;33.78;;;2.60;99.90;;;;;;5014060;28;20029;-75
2023/12/03 01:24:34;;;;;;;85.43;33.33;;;2.70;99.90;;;;;;5012671;28;20026;-75
2023/12/03 01:27:00;;;;;;;81.75;32.38;;;2.70;99.90;;;;;;5013859;28;20478;-75
2023/12/03 01:29:25;;;;;;;87.35;32.88;;;2.80;99.90;;;;;;5012790;28;20084;-75
2023/12/03 01:31:51;;;;;;;101.95;31.83;;;2.80;99.90;;;;;;5012476;28;20080;-77
2023/12/03 01:34:17;;;;;;;79.18;30.58;;;2.80;99.90;;;;;;5012620;28;20034;-76
2023/12/03 01:36:42;;;;;;;85.30;30.67;;;2.70;99.90;;;;;;5013530;28;20437;-75
2023/12/03 01:39:08;;;;;;;86.03;31.65;;;2.70;99.90;;;;;;5012839;28;20033;-75
2023/12/03 01:41:34;;;;;;;97.18;31.27;;;2.60;99.90;;;;;;5013974;28;20026;-75
2023/12/03 01:43:59;;;;;;;83.43;31.60;;;2.60;99.90;;;;;;5013103;28;20037;-75
2023/12/03 01:46:27;;;;;;;87.80;30.77;;;2.50;99.90;;;;;;5013650;28;20467;-76
2023/12/03 01:48:53;;;;;;;87.07;31.38;;;2.50;99.90;;;;;;5013490;28;20022;-76
2023/12/03 01:51:19;;;;;;;89.72;31.20;;;2.50;99.90;;;;;;5012277;28;20109;-75
2023/12/03 01:53:46;;;;;;;94.15;31.92;;;2.50;99.90;;;;;;5013103;28;20050;-75
2023/12/03 01:56:12;;;;;;;88.72;32.45;;;2.50;99.90;;;;;;5013530;28;20022;-75
2023/12/03 01:58:39;;;;;;;85.95;30.77;;;2.60;99.90;;;;;;5013608;28;20026;-75
2023/12/03 02:01:05;;;;;;;87.70;32.70;;;2.60;99.90;;;;;;5013607;28;20120;-75
2023/12/03 02:03:31;;;;;;;155.70;36.13;;;2.60;99.90;;;;;;5013594;28;20034;-75
2023/12/03 02:06:07;;;;;;;100.40;32.47;;;2.70;99.90;;;;;;5013562;28;20462;-75
2023/12/03 02:08:33;;;;;;;86.53;32.35;;;2.70;99.90;;;;;;5013407;28;20045;-76
2023/12/03 02:10:59;;;;;;;90.75;32.97;;;2.70;99.90;;;;;;5012331;28;20073;-75
2023/12/03 02:13:29;;;;;;;101.22;33.13;;;2.80;99.90;;;;;;5013312;28;20462;-76
2023/12/03 02:15:55;;;;;;;76.28;30.58;;;2.80;99.90;;;;;;5012930;28;20125;-76
2023/12/03 02:18:20;;;;;;;96.93;32.88;;;2.80;99.90;;;;;;5011662;28;20129;-75
2023/12/03 02:20:46;;;;;;;124.07;33.17;;;2.80;99.90;;;;;;5011916;28;20433;-76
2023/12/03 02:23:14;;;;;;;90.40;32.53;;;2.80;99.90;;;;;;5012447;28;20046;-75
2023/12/03 02:25:41;;;;;;;88.70;34.55;;;2.90;99.90;;;;;;5012678;28;20034;-73
2023/12/03 02:28:06;;;;;;;94.38;33.63;;;2.90;99.90;;;;;;5012964;28;20030;-73
2023/12/03 02:30:32;;;;;;;89.38;32.63;;;3.00;99.90;;;;;;5012335;28;20030;-73
2023/12/03 02:32:58;;;;;;;94.57;33.42;;;3.00;99.90;;;;;;5012387;28;20034;-73
2023/12/03 02:35:23;;;;;;;90.82;34.78;;;3.10;99.90;;;;;;5012688;28;20087;-73
2023/12/03 02:37:49;;;;;;;88.40;32.75;;;3.10;99.90;;;;;;5012556;28;20033;-76
2023/12/03 02:40:15;;;;;;;90.65;33.63;;;3.10;99.90;;;;;;5012570;28;20418;-74
2023/12/03 02:42:40;;;;;;;91.72;34.33;;;3.10;99.90;;;;;;5010848;28;20120;-74
2023/12/03 02:45:07;;;;;;;113.47;35.67;;;3.20;99.90;;;;;;5011253;28;20069;-73
2023/12/03 02:47:33;;;;;;;95.82;35.97;;;3.20;99.90;;;;;;5012539;28;20507;-73
2023/12/03 02:49:59;;;;;;;100.43;37.58;;;3.20;99.90;;;;;;5010946;28;20034;-75
2023/12/03 02:52:24;;;;;;;88.65;34.88;;;3.20;99.90;;;;;;5011122;28;20034;-74
2023/12/03 02:54:50;;;;;;;99.20;36.38;;;3.20;99.90;;;;;;5011699;28;20058;-74
2023/12/03 02:57:15;;;;;;;91.53;36.05;;;3.20;99.90;;;;;;5014444;28;20405;-74
2023/12/03 02:59:41;;;;;;;91.43;35.78;;;3.30;99.90;;;;;;5016021;28;20082;-74
2023/12/03 03:02:07;;;;;;;89.60;35.55;;;3.30;99.90;;;;;;5015735;28;20437;-74
2023/12/03 03:04:32;;;;;;;96.18;35.13;;;3.30;99.90;;;;;;5016041;28;20030;-74
2023/12/03 03:06:58;;;;;;;97.28;36.30;;;3.30;99.90;;;;;;5015829;28;20034;-74
2023/12/03 03:09:24;;;;;;;87.78;35.03;;;3.30;99.90;;;;;;5015346;28;20497;-75
2023/12/03 03:11:50;;;;;;;86.78;33.05;;;3.30;99.90;;;;;;5015943;28;20113;-74
2023/12/03 03:14:16;;;;;;;89.45;35.38;;;3.30;99.90;;;;;;5015778;28;20143;-74
2023/12/03 03:16:42;;;;;;;88.60;36.25;;;3.30;99.90;;;;;;5015819;28;20161;-74
2023/12/03 03:19:07;;;;;;;84.75;36.25;;;3.40;99.90;;;;;;5030695;28;20358;-74
2023/12/03 03:21:38;;;;;;;87.43;36.97;;;3.40;99.90;;;;;;5015540;28;20041;-74
2023/12/03 03:24:04;;;;;;;89.55;37.80;;;3.30;99.90;;;;;;5015444;28;20037;-75
2023/12/03 03:26:30;;;;;;;89.45;38.10;;;3.30;99.90;;;;;;5016535;28;20489;-75
2023/12/03 03:28:55;;;;;;;85.72;37.92;;;3.40;99.90;;;;;;5017161;28;20064;-74
2023/12/03 03:31:21;;;;;;;79.07;36.97;;;3.40;99.90;;;;;;5017809;28;20037;-74
2023/12/03 03:33:47;;;;;;;85.03;37.47;;;3.40;99.90;;;;;;5019076;28;20038;-74
2023/12/03 03:36:13;;;;;;;82.55;37.67;;;3.40;99.90;;;;;;5018493;28;20045;-73
2023/12/03 03:38:41;;;;;;;80.75;37.80;;;3.50;99.90;;;;;;5015864;28;20029;-73
2023/12/03 03:41:07;;;;;;;78.82;38.45;;;3.50;99.90;;;;;;5015479;28;20054;-74
2023/12/03 03:43:32;;;;;;;79.55;39.72;;;3.40;99.90;;;;;;5015293;28;20555;-74
2023/12/03 03:45:58;;;;;;;72.28;37.28;;;3.50;99.90;;;;;;5014981;28;20036;-74
2023/12/03 03:48:24;;;;;;;73.72;36.72;;;3.50;99.90;;;;;;5015040;28;20033;-74
2023/12/03 03:50:49;;;;;;;73.88;38.05;;;3.50;99.90;;;;;;5013990;28;20329;-74
2023/12/03 03:53:15;;;;;;;78.20;37.50;;;3.50;99.90;;;;;;5012845;28;20054;-75
2023/12/03 03:55:40;;;;;;;72.00;36.97;;;3.50;99.90;;;;;;5014761;28;20391;-75
2023/12/03 03:58:06;;;;;;;72.88;36.72;;;3.50;99.90;;;;;;4997659;28;20072;-74
2023/12/03 04:00:32;;;;;;;69.63;37.90;;;3.50;99.90;;;;;;5014709;28;20068;-74
2023/12/03 04:02:57;;;;;;;68.55;36.05;;;3.60;99.90;;;;;;5014564;28;20133;-74
2023/12/03 04:05:23;;;;;;;65.38;36.80;;;3.60;99.90;;;;;;5014533;28;20076;-74
2023/12/03 04:07:49;;;;;;;62.17;35.75;;;3.60;99.90;;;;;;5013869;28;20091;-74
2023/12/03 04:10:15;;;;;;;65.43;37.17;;;3.60;99.90;;;;;;5013430;28;20030;-74
2023/12/03 04:12:43;;;;;;;65.55;36.13;;;3.60;99.90;;;;;;5014382;28;20038;-74
2023/12/03 04:15:09;;;;;;;62.58;35.20;;;3.60;99.90;;;;;;5014273;28;20497;-74
2023/12/03 04:17:35;;;;;;;60.03;33.25;;;3.60;99.90;;;;;;5013311;28;20117;-75
2023/12/03 04:20:02;;;;;;;62.22;34.30;;;3.70;99.90;;;;;;5029502;28;20136;-76
2023/12/03 04:22:27;;;;;;;60.72;33.78;;;3.70;99.90;;;;;;5013282;28;20359;-75
2023/12/03 04:24:53;;;;;;;57.10;32.40;;;3.70;99.90;;;;;;5014236;28;20030;-76
2023/12/03 04:27:18;;;;;;;55.03;32.70;;;3.70;99.90;;;;;;5014322;28;20034;-76
2023/12/03 04:29:44;;;;;;;56.30;32.40;;;3.70;99.90;;;;;;5014091;28;20040;-77
2023/12/03 04:32:10;;;;;;;50.72;31.70;;;3.70;99.90;;;;;;5014406;28;20442;-76
2023/12/03 04:34:38;;;;;;;54.97;31.80;;;3.60;99.90;;;;;;5013953;28;20030;-75
2023/12/03 04:37:04;;;;;;;53.38;31.38;;;3.60;99.90;;;;;;5013178;28;20033;-75
2023/12/03 04:39:29;;;;;;;56.83;32.85;;;3.60;99.90;;;;;;5013036;28;20030;-75
2023/12/03 04:41:55;;;;;;;58.67;31.98;;;3.60;99.90;;;;;;5014092;28;20386;-76
2023/12/03 04:44:21;;;;;;;55.47;31.02;;;3.60;99.90;;;;;;5013905;28;20470;-76
2023/12/03 04:46:46;;;;;;;51.35;29.70;;;3.60;99.90;;;;;;5013625;28;20110;-75
2023/12/03 04:49:12;;;;;;;48.63;28.77;;;3.70;99.90;;;;;;5012889;28;20058;-76
2023/12/03 04:51:38;;;;;;;49.72;29.25;;;3.70;99.90;;;;;;5014094;28;20036;-75
2023/12/03 04:54:04;;;;;;;47.70;28.52;;;3.70;99.90;;;;;;5013219;28;20137;-75
2023/12/03 04:56:30;;;;;;;49.60;28.48;;;3.70;99.90;;;;;;5012752;28;20030;-75
2023/12/03 04:58:55;;;;;;;49.75;30.10;;;3.70;99.90;;;;;;5013787;28;20117;-75
2023/12/03 05:01:21;;;;;;;48.35;28.23;;;3.80;99.90;;;;;;5013703;28;20462;-75
2023/12/03 05:03:47;;;;;;;48.28;28.20;;;3.70;99.90;;;;;;5013953;28;20033;-75
2023/12/03 05:06:13;;;;;;;51.20;29.35;;;3.80;99.90;;;;;;5013774;28;20474;-75
2023/12/03 05:08:39;;;;;;;47.05;27.23;;;3.70;99.90;;;;;;5013842;28;20155;-75
2023/12/03 05:11:06;;;;;;;45.03;26.60;;;3.70;99.90;;;;;;5012234;28;20456;-75
2023/12/03 05:13:35;;;;;;;47.72;26.20;;;3.60;99.90;;;;;;5013469;28;20470;-75
2023/12/03 05:16:01;;;;;;;44.30;26.08;;;3.60;99.90;;;;;;5013732;28;20033;-75
2023/12/03 05:18:27;;;;;;;41.75;24.83;;;3.60;99.90;;;;;;5013105;28;20041;-75
2023/12/03 05:20:53;;;;;;;44.42;25.40;;;3.60;99.90;;;;;;5013149;28;20034;-75
2023/12/03 05:23:19;;;;;;;44.38;24.73;;;3.60;99.90;;;;;;4995667;28;20437;-75
2023/12/03 05:25:44;;;;;;;44.80;26.05;;;3.60;99.90;;;;;;4995941;28;20029;-76
2023/12/03 05:28:10;;;;;;;45.22;25.30;;;3.60;99.90;;;;;;5013484;28;20029;-75
2023/12/03 05:30:35;;;;;;;44.72;23.23;;;3.60;99.90;;;;;;4995854;28;20438;-75
2023/12/03 05:33:01;;;;;;;41.28;24.50;;;3.60;99.90;;;;;;5011932;28;20113;-75
2023/12/03 05:35:27;;;;;;;43.63;23.63;;;3.60;99.90;;;;;;5012164;28;20121;-76
2023/12/03 05:37:52;;;;;;;42.08;23.42;;;3.60;99.90;;;;;;5013339;28;20426;-76
2023/12/03 05:40:18;;;;;;;41.63;23.83;;;3.60;99.90;;;;;;5012859;28;20394;-76
2023/12/03 05:42:44;;;;;;;43.85;23.65;;;3.60;99.90;;;;;;5013392;28;20450;-76
2023/12/03 05:45:09;;;;;;;42.80;24.30;;;3.50;99.90;;;;;;5013369;28;20532;-76
2023/12/03 05:47:35;;;;;;;40.20;23.40;;;3.60;99.90;;;;;;5012091;28;20084;-75
2023/12/03 05:50:02;;;;;;;39.55;23.45;;;3.60;99.90;;;;;;5013076;28;20386;-76
2023/12/03 05:52:28;;;;;;;46.80;25.13;;;3.60;99.90;;;;;;5011799;28;20531;-76
2023/12/03 05:54:54;;;;;;;41.83;23.75;;;3.60;99.90;;;;;;5013169;28;20050;-76
2023/12/03 05:57:20;;;;;;;45.20;23.35;;;3.50;99.90;;;;;;5013118;28;20034;-75
2023/12/03 05:59:46;;;;;;;41.38;23.08;;;3.50;99.90;;;;;;5013324;28;20057;-76
2023/12/03 06:02:13;;;;;;;41.53;23.45;;;3.50;99.90;;;;;;5013526;28;20489;-76
2023/12/03 06:04:39;;;;;;;46.92;24.25;;;3.50;99.90;;;;;;5015461;28;20119;-76
2023/12/03 06:07:05;;;;;;;47.75;23.90;;;3.50;99.90;;;;;;5017981;28;20026;-75
2023/12/03 06:09:31;;;;;;;46.78;24.65;;;3.50;99.90;;;;;;5024456;28;20139;-75
2023/12/03 06:11:56;;;;;;;42.42;23.02;;;3.40;99.90;;;;;;5022726;28;20033;-76
2023/12/03 06:14:22;;;;;;;42.10;23.70;;;3.40;99.90;;;;;;5012368;28;20092;-75
2023/12/03 06:16:48;;;;;;;43.75;22.83;;;3.40;99.90;;;;;;5013741;28;20026;-75
2023/12/03 06:19:13;;;;;;;49.15;25.55;;;3.40;99.90;;;;;;5013143;28;20038;-75
2023/12/03 06:21:39;;;;;;;45.78;23.67;;;3.30;99.90;;;;;;5012731;28;20034;-75
2023/12/03 06:24:05;;;;;;;42.47;23.20;;;3.30;99.90;;;;;;5012574;28;20053;-76
2023/12/03 06:26:31;;;;;;;42.65;23.05;;;3.30;99.90;;;;;;5011432;28;20026;-75
2023/12/03 06:28:57;;;;;;;44.30;22.73;;;3.30;99.90;;;;;;5012843;28;20033;-76
2023/12/03 06:31:23;;;;;;;45.17;23.13;;;3.30;99.90;;;;;;5013738;28;20470;-75
2023/12/03 06:33:48;;;;;;;47.20;23.35;;;3.30;99.90;;;;;;5016289;28;20038;-75
2023/12/03 06:36:14;;;;;;;45.72;24.60;;;3.30;99.90;;;;;;5016343;28;20077;-75
2023/12/03 06:38:40;;;;;;;44.28;23.67;;;3.30;99.90;;;;;;5015191;28;20041;-75
2023/12/03 06:41:06;;;;;;;44.72;22.70;;;3.30;99.90;;;;;;5016544;28;20040;-74
2023/12/03 06:43:31;;;;;;;44.63;22.88;;;3.20;99.90;;;;;;5015209;28;20104;-74
2023/12/03 06:46:00;;;;;;;47.95;23.80;;;3.30;99.90;;;;;;5016049;28;20064;-73
2023/12/03 06:48:26;;;;;;;41.97;23.50;;;3.30;99.90;;;;;;5015026;28;20030;-73
2023/12/03 06:50:53;;;;;;;43.17;23.20;;;3.30;99.90;;;;;;5015656;28;20040;-73
2023/12/03 06:53:18;;;;;;;46.00;24.00;;;3.20;99.90;;;;;;5015665;28;20104;-74
2023/12/03 06:55:44;;;;;;;45.50;23.48;;;3.20;99.90;;;;;;5016103;28;20034;-73
2023/12/03 06:58:11;;;;;;;49.17;25.20;;;3.10;99.90;;;;;;4998539;28;20034;-73
2023/12/03 07:00:37;;;;;;;46.83;24.20;;;3.10;99.90;;;;;;5015942;28;20141;-73
2023/12/03 07:03:03;;;;;;;43.50;23.17;;;3.00;99.90;;;;;;5015972;28;20174;-74
2023/12/03 07:05:28;;;;;;;44.47;23.83;;;3.00;99.90;;;;;;5015651;28;20029;-74
2023/12/03 07:07:54;;;;;;;51.20;25.27;;;3.00;99.90;;;;;;5015994;28;20026;-78
2023/12/03 07:10:19;;;;;;;53.47;25.35;;;2.90;99.90;;;;;;5014491;28;20044;-79
2023/12/03 07:12:45;;;;;;;52.10;26.00;;;3.00;99.90;;;;;;5015786;28;20137;-80
2023/12/03 07:15:11;;;;;;;44.83;23.50;;;2.90;99.90;;;;;;5015853;28;20399;-79
2023/12/03 07:17:39;;;;;;;48.20;25.80;;;2.90;99.90;;;;;;4998182;28;20041;-79
2023/12/03 07:20:06;;;;;;;52.58;26.88;;;2.90;99.90;;;;;;5015536;28;20447;-81
2023/12/03 07:22:32;;;;;;;50.47;26.27;;;2.80;99.90;;;;;;5032593;28;20029;-80
2023/12/03 07:24:58;;;;;;;54.20;26.40;;;2.80;99.90;;;;;;5015774;28;20030;-81
2023/12/03 07:27:23;;;;;;;55.75;27.23;;;2.80;99.90;;;;;;5016457;28;20065;-82
2023/12/03 07:29:55;;;;;;;52.00;25.73;;;2.80;99.90;;;;;;5014851;28;20211;-82
2023/12/03 07:32:26;;;;;;;56.00;27.65;;;2.80;99.90;;;;;;5015450;28;20533;-80
2023/12/03 07:34:52;;;;;;;53.28;25.33;;;2.70;99.90;;;;;;5013714;28;20038;-82
2023/12/03 07:37:18;;;;;;;58.78;27.80;;;2.70;99.90;;;;;;5015034;28;20029;-80
2023/12/03 07:39:44;;;;;;;56.53;26.98;;;2.70;99.90;;;;;;5013751;28;20098;-80
2023/12/03 07:42:10;;;;;;;50.53;25.33;;;2.70;99.90;;;;;;5013992;28;20376;-84
2023/12/03 07:44:35;;;;;;;56.80;26.38;;;2.70;99.90;;;;;;5014009;28;20041;-82
2023/12/03 07:47:01;;;;;;;52.90;26.95;;;2.70;99.90;;;;;;5014118;28;20498;-83
2023/12/03 07:49:27;;;;;;;49.35;25.08;;;2.70;99.90;;;;;;5014751;28;20029;-82
2023/12/03 07:51:52;;;;;;;50.03;26.20;;;2.70;99.90;;;;;;5013420;28;20030;-79
2023/12/03 07:54:19;;;;;;;51.90;25.95;;;2.80;99.90;;;;;;5014255;28;20053;-80
2023/12/03 07:56:44;;;;;;;52.28;25.70;;;2.80;99.90;;;;;;5013731;28;20076;-81
2023/12/03 07:59:11;;;;;;;50.80;25.45;;;2.80;99.90;;;;;;5014735;28;20034;-80
2023/12/03 08:01:37;;;;;;;52.83;25.38;;;2.80;99.90;;;;;;4996806;28;20034;-82
2023/12/03 08:04:05;;;;;;;51.40;25.75;;;2.90;99.90;;;;;;5013789;28;20049;-81
2023/12/03 08:06:31;;;;;;;53.22;25.52;;;2.90;99.90;;;;;;5014635;28;20500;-76
2023/12/03 08:08:58;;;;;;;56.67;28.10;;;3.00;99.90;;;;;;5021342;28;20062;-79
2023/12/03 08:11:23;;;;;;;50.38;26.83;;;3.00;99.90;;;;;;5030301;28;20061;-77
2023/12/03 08:13:49;;;;;;;49.60;26.23;;;3.00;99.90;;;;;;5023394;28;20128;-79
2023/12/03 08:16:16;;;;;;;50.15;24.85;;;3.10;99.90;;;;;;5023358;28;20030;-79
2023/12/03 08:18:42;;;;;;;47.05;24.20;;;3.20;99.90;;;;;;5032519;28;20039;-80
2023/12/03 08:21:09;;;;;;;47.72;24.73;;;3.20;99.90;;;;;;5032889;28;20116;-77
2023/12/03 08:23:35;;;;;;;47.38;22.50;;;3.30;99.90;;;;;;5033556;28;20060;-78
2023/12/03 08:26:03;;;;;;;42.70;22.52;;;3.40;99.90;;;;;;5014972;28;20068;-79
2023/12/03 08:28:29;;;;;;;46.75;23.80;;;3.50;99.90;;;;;;5009305;28;20054;-78
2023/12/03 08:30:54;;;;;;;51.42;24.55;;;3.60;99.90;;;;;;5013554;28;20061;-79
2023/12/03 08:33:20;;;;;;;42.63;21.55;;;3.70;99.90;;;;;;5013086;28;20045;-79
2023/12/03 08:35:46;;;;;;;50.13;23.85;;;3.80;99.90;;;;;;5014666;28;20030;-78
2023/12/03 08:38:11;;;;;;;43.13;22.80;;;3.90;99.90;;;;;;5014228;28;20053;-79
2023/12/03 08:40:37;;;;;;;49.33;23.95;;;4.00;99.90;;;;;;5013883;28;20026;-77
2023/12/03 08:43:03;;;;;;;46.42;24.23;;;4.10;99.90;;;;;;5017391;28;20045;-77
2023/12/03 08:45:29;;;;;;;49.53;24.40;;;4.10;99.90;;;;;;5017445;28;20030;-78
2023/12/03 08:47:56;;;;;;;44.15;22.48;;;4.10;99.90;;;;;;5022710;28;20049;-83
2023/12/03 08:50:27;;;;;;;47.33;23.25;;;4.10;99.90;;;;;;5006403;28;20084;-83
2023/12/03 08:52:55;;;;;;;40.28;20.90;;;4.20;99.90;;;;;;5016095;28;20053;-86
2023/12/03 08:55:21;;;;;;;40.45;21.10;;;4.20;99.90;;;;;;5014941;28;20028;-83
2023/12/03 08:57:48;;;;;;;43.97;22.30;;;4.30;99.90;;;;;;5015351;28;20113;-77
2023/12/03 09:00:15;;;;;;;39.72;20.80;;;4.40;99.90;;;;;;5013219;28;20037;-78
2023/12/03 09:02:44;;;;;;;39.72;21.73;;;4.40;99.90;;;;;;5014183;28;20512;-79
2023/12/03 09:05:10;;;;;;;42.90;21.15;;;4.50;99.90;;;;;;5012534;28;20037;-79
2023/12/03 09:07:36;;;;;;;39.75;20.63;;;4.60;99.90;;;;;;5013659;28;20061;-79
2023/12/03 09:10:02;;;;;;;40.47;20.67;;;4.70;99.90;;;;;;5015008;28;20026;-80
2023/12/03 09:12:28;;;;;;;42.15;20.63;;;4.70;99.90;;;;;;5013701;28;20034;-82
2023/12/03 09:14:54;;;;;;;38.17;20.70;;;4.80;99.90;;;;;;5013765;28;20042;-82
2023/12/03 09:17:19;;;;;;;38.22;20.13;;;4.80;99.90;;;;;;5012975;28;20106;-84
2023/12/03 09:19:45;;;;;;;41.45;20.80;;;4.80;99.90;;;;;;5012497;28;20152;-82
2023/12/03 09:22:10;;;;;;;37.63;19.42;;;4.80;99.90;;;;;;5013984;28;20061;-81
2023/12/03 09:24:36;;;;;;;37.70;18.63;;;4.90;99.90;;;;;;5012875;28;20037;-81
2023/12/03 09:27:02;;;;;;;37.53;19.52;;;5.00;99.90;;;;;;5011858;28;20120;-81
2023/12/03 09:29:28;;;;;;;38.53;20.35;;;5.00;99.90;;;;;;5013782;28;20052;-82
2023/12/03 09:31:54;;;;;;;38.22;20.27;;;5.00;99.90;;;;;;5011188;28;20042;-82
2023/12/03 09:34:19;;;;;;;38.40;20.67;;;4.90;99.90;;;;;;5011715;28;20038;-80
2023/12/03 09:36:45;;;;;;;39.35;20.13;;;4.90;99.90;;;;;;5015187;28;20104;-84
2023/12/03 09:39:11;;;;;;;39.05;21.52;;;4.80;99.90;;;;;;5012452;28;20060;-82
2023/12/03 09:41:47;;;;;;;36.92;19.65;;;4.80;99.90;;;;;;5014071;28;20022;-81
2023/12/03 09:44:21;;;;;;;36.20;18.92;;;4.80;99.90;;;;;;5009405;28;20519;-79
2023/12/03 09:46:49;;;;;;;36.35;19.52;;;4.90;99.90;;;;;;5009825;28;20026;-81
2023/12/03 09:49:21;;;;;;;37.88;19.15;;;4.90;99.90;;;;;;5009806;28;20172;-81
2023/12/03 09:51:47;;;;;;;36.17;19.42;;;4.90;99.90;;;;;;5009392;28;20029;-76
2023/12/03 09:54:13;;;;;;;37.22;18.70;;;5.00;99.90;;;;;;5015264;28;20128;-76
2023/12/03 09:56:40;;;;;;;36.17;19.15;;;5.00;99.90;;;;;;5012518;28;20113;-76
2023/12/03 09:59:10;;;;;;;38.38;20.02;;;5.00;99.90;;;;;;5009951;28;20025;-75
2023/12/03 10:01:40;;;;;;;33.50;18.42;;;5.00;99.80;;;;;;5011819;28;20526;-79
2023/12/03 10:04:06;;;;;;;34.58;18.67;;;5.10;99.30;;;;;;5011883;28;20041;-76
2023/12/03 10:06:36;;;;;;;37.33;20.05;;;5.10;98.90;;;;;;5014288;28;20045;-75
2023/12/03 10:09:03;;;;;;;33.88;18.42;;;5.00;98.80;;;;;;5014348;28;20053;-76
2023/12/03 10:11:39;;;;;;;34.95;18.30;;;5.00;99.00;;;;;;5014547;28;20037;-76
2023/12/03 10:14:08;;;;;;;30.13;16.85;;;5.20;99.10;;;;;;5016097;28;20045;-75
2023/12/03 10:16:34;;;;;;;33.45;17.50;;;5.20;98.50;;;;;;5015282;28;20091;-77
2023/12/03 10:18:59;;;;;;;28.58;17.02;;;5.30;98.50;;;;;;5014325;28;20113;-77
2023/12/03 10:21:25;;;;;;;33.38;17.38;;;5.30;98.00;;;;;;5015997;28;20030;-78
2023/12/03 10:24:00;;;;;;;31.80;17.08;;;5.40;98.20;;;;;;5014171;28;20486;-78
2023/12/03 10:26:26;;;;;;;34.63;17.92;;;5.40;98.20;;;;;;5015407;28;20471;-75
2023/12/03 10:28:52;;;;;;;31.83;15.80;;;5.50;98.20;;;;;;5014785;28;20049;-76
2023/12/03 10:31:18;;;;;;;30.85;16.52;;;5.50;98.00;;;;;;5013899;28;20049;-77
2023/12/03 10:33:45;;;;;;;34.60;17.73;;;5.60;98.10;;;;;;5015224;28;20112;-76
2023/12/03 10:36:11;;;;;;;31.75;17.10;;;5.60;97.60;;;;;;4997767;28;20065;-76
2023/12/03 10:38:41;;;;;;;35.58;17.88;;;5.60;97.60;;;;;;5015327;28;20113;-77
2023/12/03 10:41:09;;;;;;;32.53;17.83;;;5.60;97.50;;;;;;5015115;28;20064;-77
2023/12/03 10:43:42;;;;;;;32.42;17.77;;;5.70;97.50;;;;;;5013660;28;20033;-77
2023/12/03 10:46:12;;;;;;;31.20;17.15;;;5.70;97.30;;;;;;5014118;28;20069;-77
2023/12/03 10:48:38;;;;;;;30.30;15.55;;;5.80;97.20;;;;;;5015782;28;20028;-78
2023/12/03 10:51:05;;;;;;;31.45;16.50;;;5.80;97.10;;;;;;5015676;28;20074;-78
2023/12/03 10:53:32;;;;;;;28.55;15.80;;;5.90;96.80;;;;;;5013553;28;20150;-78
2023/12/03 10:56:00;;;;;;;26.70;15.52;;;5.80;96.70;;;;;;5015629;28;20373;-77
2023/12/03 10:58:26;;;;;;;29.67;16.25;;;5.90;96.80;;;;;;5014894;28;20037;-78
2023/12/03 11:01:00;;;;;;;29.45;15.77;;;5.90;96.80;;;;;;5013899;28;20040;-78
2023/12/03 11:03:38;;;;;;;27.88;14.90;;;6.00;96.70;;;;;;5013129;28;20030;-78
2023/12/03 11:06:06;;;;;;;30.35;16.25;;;6.00;96.40;;;;;;5015228;28;20466;-78
2023/12/03 11:08:32;;;;;;;28.98;15.65;;;5.90;96.00;;;;;;5016664;28;20026;-78
2023/12/03 11:10:59;;;;;;;26.67;14.50;;;5.90;95.80;;;;;;5015697;28;20034;-78
2023/12/03 11:13:26;;;;;;;27.20;14.73;;;5.80;95.90;;;;;;5015589;28;20393;-78
2023/12/03 11:15:53;;;;;;;29.52;14.77;;;5.90;95.90;;;;;;5014758;28;20138;-78
2023/12/03 11:18:21;;;;;;;25.90;13.20;;;6.00;95.70;;;;;;5015514;28;20091;-78
2023/12/03 11:20:47;;;;;;;23.80;13.45;;;6.10;95.80;;;;;;5014466;28;20022;-78
2023/12/03 11:23:41;;;;;;;22.95;12.68;;;6.10;95.10;;;;;;5014759;28;20061;-77
2023/12/03 11:26:15;;;;;;;21.83;11.65;;;6.10;94.80;;;;;;5014675;28;20490;-77
2023/12/03 11:28:51;;;;;;;23.55;12.57;;;6.00;94.90;;;;;;5012339;28;20109;-78
2023/12/03 11:31:17;;;;;;;22.00;12.13;;;6.00;95.00;;;;;;5014717;28;20117;-78
2023/12/03 11:33:55;;;;;;;24.75;12.68;;;6.00;95.20;;;;;;5013325;28;20554;-78
2023/12/03 11:36:32;;;;;;;24.92;13.02;;;6.10;95.00;;;;;;5013844;28;20450;-78
2023/12/03 11:38:58;;;;;;;22.38;12.95;;;6.00;94.60;;;;;;5012715;28;20037;-78
2023/12/03 11:41:24;;;;;;;26.52;13.70;;;6.00;94.70;;;;;;4996269;28;20398;-78
2023/12/03 11:43:49;;;;;;;25.58;12.80;;;6.00;94.90;;;;;;5013209;28;20457;-78
2023/12/03 11:46:15;;;;;;;25.42;12.73;;;6.10;94.80;;;;;;5014048;28;20097;-78
2023/12/03 11:48:42;;;;;;;25.13;12.68;;;6.20;94.70;;;;;;5014471;28;20030;-77
2023/12/03 11:51:09;;;;;;;23.25;13.23;;;6.20;94.30;;;;;;5014497;28;20034;-78
2023/12/03 11:54:10;;;;;;;24.40;12.90;;;6.20;94.30;;;;;;5013304;28;20104;-78
2023/12/03 11:56:35;;;;;;;25.20;13.27;;;6.20;94.20;;;;;;4979323;28;20034;-78
2023/12/03 11:59:01;;;;;;;20.38;12.23;;;6.20;93.60;;;;;;5012891;28;20401;-78
2023/12/03 12:01:28;;;;;;;21.15;12.10;;;6.20;93.70;;;;;;5014266;28;20058;-78
2023/12/03 12:03:54;;;;;;;22.45;13.02;;;6.10;93.50;;;;;;5014008;28;20038;-77
2023/12/03 12:06:26;;;;;;;27.08;12.40;;;6.10;93.70;;;;;;5012587;28;20400;-78
2023/12/03 12:08:52;;;;;;;21.83;12.38;;;6.10;93.30;;;;;;5014321;28;20034;-78
2023/12/03 12:11:18;;;;;;;23.85;13.02;;;6.20;93.20;;;;;;5019953;28;20474;-78
2023/12/03 12:13:45;;;;;;;23.15;12.85;;;6.10;93.10;;;;;;5019884;28;20045;-78
2023/12/03 12:16:12;;;;;;;20.17;12.40;;;6.10;93.00;;;;;;5019473;28;20026;-78
2023/12/03 12:18:37;;;;;;;24.77;11.77;;;6.10;93.10;;;;;;5018434;28;20426;-77
2023/12/03 12:21:10;;;;;;;22.35;12.60;;;6.10;93.30;;;;;;5016196;28;20072;-77
2023/12/03 12:23:36;;;;;;;23.38;13.10;;;6.00;92.80;;;;;;5011783;28;20057;-77
2023/12/03 12:26:02;;;;;;;21.38;12.23;;;5.90;93.10;;;;;;5012958;28;20474;-78
2023/12/03 12:28:28;;;;;;;21.02;11.88;;;5.80;92.70;;;;;;5009647;28;20054;-78
2023/12/03 12:30:57;;;;;;;23.48;11.90;;;5.80;92.90;;;;;;5010090;28;20107;-78
2023/12/03 12:33:23;;;;;;;21.20;11.75;;;5.80;92.50;;;;;;5009936;28;20040;-80